sensor_id;sensor_type;location;lat;lon;timestamp;pressure;altitude;pressure_sealevel;temperature;humidity
58739;BME280;44512;53.046;18.604;2022-07-06T00:06:59;101927.63;;;20.90;52.01
58739;BME280;44512;53.046;18.604;2022-07-06T00:17:28;101932.51;;;20.76;52.34
58739;BME280;44512;53.046;18.604;2022-07-06T00:27:56;101941.23;;;20.62;52.58
58739;BME280;44512;53.046;18.604;2022-07-06T00:38:24;101945.06;;;20.49;52.79
58739;BME280;44512;53.046;18.604;2022-07-06T00:48:53;101935.31;;;20.35;53.00
58739;BME280;44512;53.046;18.604;2022-07-06T00:59:22;101931.71;;;20.22;53.20
58739;BME280;44512;53.046;18.604;2022-07-06T01:09:49;101926.19;;;20.11;53.32
58739;BME280;44512;53.046;18.604;2022-07-06T01:20:19;101933.79;;;19.97;53.63
58739;BME280;44512;53.046;18.604;2022-07-06T01:30:46;101927.38;;;19.85;54.17
58739;BME280;44512;53.046;18.604;2022-07-06T01:41:15;101927.59;;;19.71;54.62
58739;BME280;44512;53.046;18.604;2022-07-06T01:51:43;101931.72;;;19.62;55.00
58739;BME280;44512;53.046;18.604;2022-07-06T02:02:11;101928.89;;;19.50;55.14
58739;BME280;44512;53.046;18.604;2022-07-06T02:12:39;101928.84;;;19.39;55.14
58739;BME280;44512;53.046;18.604;2022-07-06T02:23:08;101923.49;;;19.25;55.26
58739;BME280;44512;53.046;18.604;2022-07-06T02:33:36;101925.34;;;19.13;55.54
58739;BME280;44512;53.046;18.604;2022-07-06T02:44:04;101930.51;;;19.03;55.62
58739;BME280;44512;53.046;18.604;2022-07-06T02:54:33;101933.77;;;18.93;55.77
58739;BME280;44512;53.046;18.604;2022-07-06T03:05:02;101925.82;;;18.85;55.93
58739;BME280;44512;53.046;18.604;2022-07-06T03:15:30;101912.02;;;18.73;56.26
58739;BME280;44512;53.046;18.604;2022-07-06T03:25:58;101921.33;;;18.66;56.57
58739;BME280;44512;53.046;18.604;2022-07-06T03:36:26;101918.45;;;18.61;56.87
58739;BME280;44512;53.046;18.604;2022-07-06T03:46:55;101922.89;;;18.55;56.97
58739;BME280;44512;53.046;18.604;2022-07-06T03:57:23;101919.99;;;18.50;57.33
58739;BME280;44512;53.046;18.604;2022-07-06T04:07:51;101918.95;;;18.51;58.02
58739;BME280;44512;53.046;18.604;2022-07-06T04:18:20;101913.00;;;18.54;58.70
58739;BME280;44512;53.046;18.604;2022-07-06T04:28:48;101912.09;;;18.60;59.32
58739;BME280;44512;53.046;18.604;2022-07-06T04:39:16;101908.04;;;18.69;59.84
58739;BME280;44512;53.046;18.604;2022-07-06T04:49:45;101922.09;;;18.80;60.17
58739;BME280;44512;53.046;18.604;2022-07-06T05:00:14;101912.27;;;18.90;60.48
58739;BME280;44512;53.046;18.604;2022-07-06T05:10:42;101919.42;;;18.91;60.87
58739;BME280;44512;53.046;18.604;2022-07-06T05:21:10;101909.24;;;18.98;60.91
58739;BME280;44512;53.046;18.604;2022-07-06T05:31:39;101904.41;;;19.12;60.52
58739;BME280;44512;53.046;18.604;2022-07-06T05:42:07;101902.84;;;19.23;59.53
58739;BME280;44512;53.046;18.604;2022-07-06T05:52:35;101900.60;;;19.32;58.75
58739;BME280;44512;53.046;18.604;2022-07-06T06:03:03;101905.31;;;19.43;57.47
58739;BME280;44512;53.046;18.604;2022-07-06T06:13:32;101901.81;;;19.54;55.22
58739;BME280;44512;53.046;18.604;2022-07-06T06:24:00;101898.76;;;19.62;53.03
58739;BME280;44512;53.046;18.604;2022-07-06T06:34:28;101903.95;;;19.70;50.20
58739;BME280;44512;53.046;18.604;2022-07-06T06:44:57;101905.06;;;19.81;49.66
58739;BME280;44512;53.046;18.604;2022-07-06T06:55:25;101919.53;;;19.88;49.82
58739;BME280;44512;53.046;18.604;2022-07-06T07:05:53;101892.56;;;19.97;49.33
58739;BME280;44512;53.046;18.604;2022-07-06T07:16:22;101899.41;;;20.06;49.56
58739;BME280;44512;53.046;18.604;2022-07-06T07:26:50;101897.51;;;20.18;48.48
58739;BME280;44512;53.046;18.604;2022-07-06T07:37:18;101900.06;;;20.32;46.98
58739;BME280;44512;53.046;18.604;2022-07-06T07:47:47;101913.58;;;20.45;47.07
58739;BME280;44512;53.046;18.604;2022-07-06T07:58:15;101921.02;;;20.56;46.76
58739;BME280;44512;53.046;18.604;2022-07-06T08:08:43;101914.09;;;20.65;46.37
58739;BME280;44512;53.046;18.604;2022-07-06T08:19:12;101900.00;;;20.73;45.37
58739;BME280;44512;53.046;18.604;2022-07-06T08:29:40;101895.20;;;20.80;45.48
58739;BME280;44512;53.046;18.604;2022-07-06T08:40:09;101902.27;;;20.88;46.25
58739;BME280;44512;53.046;18.604;2022-07-06T08:50:37;101894.95;;;20.94;46.46
58739;BME280;44512;53.046;18.604;2022-07-06T09:01:05;101879.39;;;20.99;45.72
58739;BME280;44512;53.046;18.604;2022-07-06T09:11:33;101879.51;;;21.04;45.38
58739;BME280;44512;53.046;18.604;2022-07-06T09:22:03;101871.35;;;21.10;44.17
58739;BME280;44512;53.046;18.604;2022-07-06T09:32:31;101875.88;;;21.16;43.59
58739;BME280;44512;53.046;18.604;2022-07-06T09:53:27;101871.43;;;21.26;42.01
58739;BME280;44512;53.046;18.604;2022-07-06T10:03:55;101852.03;;;21.33;41.41
58739;BME280;44512;53.046;18.604;2022-07-06T10:14:28;101855.23;;;21.42;41.07
58739;BME280;44512;53.046;18.604;2022-07-06T10:24:52;101865.85;;;21.50;40.81
58739;BME280;44512;53.046;18.604;2022-07-06T10:35:20;101859.39;;;21.56;40.62
58739;BME280;44512;53.046;18.604;2022-07-06T10:50:41;101869.06;;;21.58;40.85
58739;BME280;44512;53.046;18.604;2022-07-06T11:00:49;101880.43;;;21.62;40.46
58739;BME280;44512;53.046;18.604;2022-07-06T11:10:53;101905.65;;;21.42;45.83
58739;BME280;44512;53.046;18.604;2022-07-06T11:21:19;101908.84;;;20.99;48.22
58739;BME280;44512;53.046;18.604;2022-07-06T11:31:10;101912.68;;;20.74;49.44
58739;BME280;44512;53.046;18.604;2022-07-06T11:41:12;101910.27;;;20.66;49.45
58739;BME280;44512;53.046;18.604;2022-07-06T11:51:15;101912.43;;;20.64;49.73
58739;BME280;44512;53.046;18.604;2022-07-06T12:01:17;101907.05;;;20.69;50.05
58739;BME280;44512;53.046;18.604;2022-07-06T12:21:28;101890.62;;;20.98;49.19
58739;BME280;44512;53.046;18.604;2022-07-06T12:31:36;101884.86;;;21.11;48.42
58739;BME280;44512;53.046;18.604;2022-07-06T12:41:47;101885.09;;;21.21;47.01
58739;BME280;44512;53.046;18.604;2022-07-06T12:51:54;101901.60;;;21.21;44.63
58739;BME280;44512;53.046;18.604;2022-07-06T13:01:56;101893.93;;;21.23;41.61
58739;BME280;44512;53.046;18.604;2022-07-06T13:11:57;101893.59;;;21.20;40.77
58739;BME280;44512;53.046;18.604;2022-07-06T13:21:59;101885.09;;;21.21;40.54
58739;BME280;44512;53.046;18.604;2022-07-06T13:32:01;101880.66;;;21.20;40.71
58739;BME280;44512;53.046;18.604;2022-07-06T13:42:03;101878.50;;;21.22;40.76
58739;BME280;44512;53.046;18.604;2022-07-06T13:52:05;101870.85;;;21.24;40.66
58739;BME280;44512;53.046;18.604;2022-07-06T14:02:07;101852.29;;;21.31;40.33
58739;BME280;44512;53.046;18.604;2022-07-06T14:12:08;101839.90;;;21.46;40.18
58739;BME280;44512;53.046;18.604;2022-07-06T14:22:10;101839.77;;;21.69;40.09
58739;BME280;44512;53.046;18.604;2022-07-06T14:32:11;101849.51;;;22.05;35.52
58739;BME280;44512;53.046;18.604;2022-07-06T14:42:13;101847.12;;;22.26;35.42
58739;BME280;44512;53.046;18.604;2022-07-06T14:52:14;101834.41;;;22.42;34.85
58739;BME280;44512;53.046;18.604;2022-07-06T15:02:36;101816.48;;;22.61;35.48
58739;BME280;44512;53.046;18.604;2022-07-06T15:13:04;101824.75;;;23.00;34.16
58739;BME280;44512;53.046;18.604;2022-07-06T15:23:33;101839.63;;;23.43;34.58
58739;BME280;44512;53.046;18.604;2022-07-06T15:34:01;101839.10;;;23.46;35.11
58739;BME280;44512;53.046;18.604;2022-07-06T15:44:29;101828.59;;;23.43;35.56
58739;BME280;44512;53.046;18.604;2022-07-06T15:54:58;101839.10;;;23.46;35.95
58739;BME280;44512;53.046;18.604;2022-07-06T16:05:27;101845.78;;;23.50;36.02
58739;BME280;44512;53.046;18.604;2022-07-06T16:15:54;101851.85;;;23.47;35.66
58739;BME280;44512;53.046;18.604;2022-07-06T16:26:23;101863.55;;;23.32;35.31
58739;BME280;44512;53.046;18.604;2022-07-06T16:36:51;101868.42;;;23.03;33.56
58739;BME280;44512;53.046;18.604;2022-07-06T16:47:19;101864.26;;;22.83;34.20
58739;BME280;44512;53.046;18.604;2022-07-06T16:57:47;101864.79;;;22.80;35.01
58739;BME280;44512;53.046;18.604;2022-07-06T17:08:15;101873.56;;;22.77;35.78
58739;BME280;44512;53.046;18.604;2022-07-06T17:18:44;101872.50;;;22.61;35.82
58739;BME280;44512;53.046;18.604;2022-07-06T17:29:12;101867.02;;;22.45;35.62
58739;BME280;44512;53.046;18.604;2022-07-06T17:39:41;101868.53;;;22.19;36.09
58739;BME280;44512;53.046;18.604;2022-07-06T17:50:09;101876.67;;;21.97;36.98
58739;BME280;44512;53.046;18.604;2022-07-06T18:00:37;101870.88;;;21.81;38.17
58739;BME280;44512;53.046;18.604;2022-07-06T18:11:05;101891.87;;;21.71;39.49
58739;BME280;44512;53.046;18.604;2022-07-06T18:21:34;101895.87;;;21.63;40.36
58739;BME280;44512;53.046;18.604;2022-07-06T18:32:03;101900.35;;;21.52;40.94
58739;BME280;44512;53.046;18.604;2022-07-06T18:42:30;101899.89;;;21.44;41.29
58739;BME280;44512;53.046;18.604;2022-07-06T18:52:59;101904.71;;;21.37;41.29
58739;BME280;44512;53.046;18.604;2022-07-06T19:03:27;101904.46;;;21.26;41.38
58739;BME280;44512;53.046;18.604;2022-07-06T19:13:55;101912.76;;;21.15;41.01
58739;BME280;44512;53.046;18.604;2022-07-06T19:24:24;101895.66;;;21.01;40.73
58739;BME280;44512;53.046;18.604;2022-07-06T19:34:52;101896.52;;;20.90;40.72
58739;BME280;44512;53.046;18.604;2022-07-06T19:45:20;101901.67;;;20.74;40.91
58739;BME280;44512;53.046;18.604;2022-07-06T19:55:49;101912.31;;;20.59;41.23
58739;BME280;44512;53.046;18.604;2022-07-06T20:06:17;101912.30;;;20.47;41.61
58739;BME280;44512;53.046;18.604;2022-07-06T20:16:45;101909.62;;;20.41;41.93
58739;BME280;44512;53.046;18.604;2022-07-06T20:27:14;101912.73;;;20.33;42.21
58739;BME280;44512;53.046;18.604;2022-07-06T20:37:42;101906.13;;;20.22;42.36
58739;BME280;44512;53.046;18.604;2022-07-06T20:48:10;101905.05;;;20.11;42.53
58739;BME280;44512;53.046;18.604;2022-07-06T20:58:39;101908.11;;;20.03;42.78
58739;BME280;44512;53.046;18.604;2022-07-06T21:09:07;101906.68;;;20.00;43.02
58739;BME280;44512;53.046;18.604;2022-07-06T21:19:35;101899.35;;;19.94;43.28
58739;BME280;44512;53.046;18.604;2022-07-06T21:30:05;101900.54;;;19.87;43.82
58739;BME280;44512;53.046;18.604;2022-07-06T21:40:33;101903.05;;;19.88;44.19
58739;BME280;44512;53.046;18.604;2022-07-06T21:51:00;101895.49;;;19.84;44.42
58739;BME280;44512;53.046;18.604;2022-07-06T22:01:29;101902.32;;;19.81;44.55
58739;BME280;44512;53.046;18.604;2022-07-06T22:11:58;101896.92;;;19.74;44.77
58739;BME280;44512;53.046;18.604;2022-07-06T22:22:26;101897.24;;;19.66;45.01
58739;BME280;44512;53.046;18.604;2022-07-06T22:32:54;101893.93;;;19.58;45.25
58739;BME280;44512;53.046;18.604;2022-07-06T22:43:23;101882.80;;;19.52;45.45
58739;BME280;44512;53.046;18.604;2022-07-06T22:53:51;101881.23;;;19.45;45.70
58739;BME280;44512;53.046;18.604;2022-07-06T23:04:19;101881.09;;;19.40;46.01
58739;BME280;44512;53.046;18.604;2022-07-06T23:14:47;101875.69;;;19.33;46.32
58739;BME280;44512;53.046;18.604;2022-07-06T23:25:16;101883.99;;;19.26;46.62
58739;BME280;44512;53.046;18.604;2022-07-06T23:35:44;101880.94;;;19.16;46.83
58739;BME280;44512;53.046;18.604;2022-07-06T23:46:12;101869.59;;;18.94;47.28
58739;BME280;44512;53.046;18.604;2022-07-06T23:56:41;101870.52;;;18.88;47.73
